sensor_id;sensor_type;location;lat;lon;timestamp;P1;durP1;ratioP1;P2;durP2;ratioP2
69280;SDS011;56392;51.082;17.080;2022-09-03T00:00:29;9.33;;;1.80;;
69280;SDS011;56392;51.082;17.080;2022-09-03T00:05:40;8.30;;;1.97;;
69280;SDS011;56392;51.082;17.080;2022-09-03T00:10:50;6.65;;;1.70;;
69280;SDS011;56392;51.082;17.080;2022-09-03T00:15:58;4.70;;;1.42;;
69280;SDS011;56392;51.082;17.080;2022-09-03T00:21:06;7.90;;;1.80;;
69280;SDS011;56392;51.082;17.080;2022-09-03T00:26:17;7.10;;;1.75;;
69280;SDS011;56392;51.082;17.080;2022-09-03T00:31:28;6.03;;;1.92;;
69280;SDS011;56392;51.082;17.080;2022-09-03T00:36:34;5.70;;;1.87;;
69280;SDS011;56392;51.082;17.080;2022-09-03T00:41:46;8.25;;;1.90;;
69280;SDS011;56392;51.082;17.080;2022-09-03T00:47:03;7.10;;;2.10;;
69280;SDS011;56392;51.082;17.080;2022-09-03T00:52:13;5.93;;;1.90;;
69280;SDS011;56392;51.082;17.080;2022-09-03T00:57:29;6.47;;;1.80;;
69280;SDS011;56392;51.082;17.080;2022-09-03T01:02:49;9.88;;;2.67;;
69280;SDS011;56392;51.082;17.080;2022-09-03T01:08:02;6.43;;;1.83;;
69280;SDS011;56392;51.082;17.080;2022-09-03T01:13:13;6.67;;;1.97;;
69280;SDS011;56392;51.082;17.080;2022-09-03T01:18:22;6.82;;;1.80;;
69280;SDS011;56392;51.082;17.080;2022-09-03T01:23:37;7.25;;;1.75;;
69280;SDS011;56392;51.082;17.080;2022-09-03T01:28:54;9.43;;;2.00;;
69280;SDS011;56392;51.082;17.080;2022-09-03T01:34:09;6.40;;;2.00;;
69280;SDS011;56392;51.082;17.080;2022-09-03T01:39:19;8.05;;;2.03;;
69280;SDS011;56392;51.082;17.080;2022-09-03T01:44:38;7.07;;;1.87;;
69280;SDS011;56392;51.082;17.080;2022-09-03T01:49:53;7.73;;;2.00;;
69280;SDS011;56392;51.082;17.080;2022-09-03T01:55:05;6.63;;;1.90;;
69280;SDS011;56392;51.082;17.080;2022-09-03T02:00:15;6.43;;;1.83;;
69280;SDS011;56392;51.082;17.080;2022-09-03T02:05:20;6.60;;;2.00;;
69280;SDS011;56392;51.082;17.080;2022-09-03T02:10:25;8.70;;;2.30;;
69280;SDS011;56392;51.082;17.080;2022-09-03T02:15:31;9.13;;;2.03;;
69280;SDS011;56392;51.082;17.080;2022-09-03T02:20:36;10.90;;;2.37;;
69280;SDS011;56392;51.082;17.080;2022-09-03T02:25:40;6.93;;;2.30;;
69280;SDS011;56392;51.082;17.080;2022-09-03T02:30:47;7.85;;;2.42;;
69280;SDS011;56392;51.082;17.080;2022-09-03T02:35:50;7.70;;;2.13;;
69280;SDS011;56392;51.082;17.080;2022-09-03T02:40:54;7.83;;;2.37;;
69280;SDS011;56392;51.082;17.080;2022-09-03T02:45:58;7.72;;;2.50;;
69280;SDS011;56392;51.082;17.080;2022-09-03T02:51:03;10.38;;;3.22;;
69280;SDS011;56392;51.082;17.080;2022-09-03T02:56:06;8.37;;;2.30;;
69280;SDS011;56392;51.082;17.080;2022-09-03T03:01:10;7.13;;;2.33;;
69280;SDS011;56392;51.082;17.080;2022-09-03T03:06:12;9.27;;;2.47;;
69280;SDS011;56392;51.082;17.080;2022-09-03T03:11:15;8.23;;;2.70;;
69280;SDS011;56392;51.082;17.080;2022-09-03T03:16:21;10.18;;;2.63;;
69280;SDS011;56392;51.082;17.080;2022-09-03T03:21:23;8.88;;;2.22;;
69280;SDS011;56392;51.082;17.080;2022-09-03T03:26:26;8.80;;;2.70;;
69280;SDS011;56392;51.082;17.080;2022-09-03T03:31:31;7.33;;;2.37;;
69280;SDS011;56392;51.082;17.080;2022-09-03T03:36:34;8.63;;;2.25;;
69280;SDS011;56392;51.082;17.080;2022-09-03T03:41:37;7.43;;;2.30;;
69280;SDS011;56392;51.082;17.080;2022-09-03T03:46:41;7.30;;;2.30;;
69280;SDS011;56392;51.082;17.080;2022-09-03T03:51:43;7.18;;;2.20;;
69280;SDS011;56392;51.082;17.080;2022-09-03T03:56:46;8.40;;;2.50;;
69280;SDS011;56392;51.082;17.080;2022-09-03T04:01:50;6.30;;;2.20;;
69280;SDS011;56392;51.082;17.080;2022-09-03T04:06:53;7.55;;;2.35;;
69280;SDS011;56392;51.082;17.080;2022-09-03T04:11:55;7.38;;;2.33;;
69280;SDS011;56392;51.082;17.080;2022-09-03T04:17:00;7.40;;;2.70;;
69280;SDS011;56392;51.082;17.080;2022-09-03T04:22:03;7.57;;;2.20;;
69280;SDS011;56392;51.082;17.080;2022-09-03T04:27:05;7.30;;;2.20;;
69280;SDS011;56392;51.082;17.080;2022-09-03T04:32:10;8.60;;;2.38;;
69280;SDS011;56392;51.082;17.080;2022-09-03T04:37:31;7.30;;;2.30;;
69280;SDS011;56392;51.082;17.080;2022-09-03T04:42:33;9.57;;;2.20;;
69280;SDS011;56392;51.082;17.080;2022-09-03T04:47:37;8.30;;;2.38;;
69280;SDS011;56392;51.082;17.080;2022-09-03T04:52:40;7.80;;;2.20;;
69280;SDS011;56392;51.082;17.080;2022-09-03T04:57:42;8.73;;;2.58;;
69280;SDS011;56392;51.082;17.080;2022-09-03T05:02:46;5.57;;;1.85;;
69280;SDS011;56392;51.082;17.080;2022-09-03T05:07:51;7.70;;;2.60;;
69280;SDS011;56392;51.082;17.080;2022-09-03T05:12:57;8.80;;;2.23;;
69280;SDS011;56392;51.082;17.080;2022-09-03T05:18:02;6.50;;;2.15;;
69280;SDS011;56392;51.082;17.080;2022-09-03T05:23:05;7.35;;;2.30;;
69280;SDS011;56392;51.082;17.080;2022-09-03T05:28:08;6.80;;;2.40;;
69280;SDS011;56392;51.082;17.080;2022-09-03T05:33:12;7.20;;;2.13;;
69280;SDS011;56392;51.082;17.080;2022-09-03T05:38:16;7.20;;;2.03;;
69280;SDS011;56392;51.082;17.080;2022-09-03T05:43:19;8.10;;;2.20;;
69280;SDS011;56392;51.082;17.080;2022-09-03T05:48:23;8.45;;;2.10;;
69280;SDS011;56392;51.082;17.080;2022-09-03T05:53:25;8.35;;;2.40;;
69280;SDS011;56392;51.082;17.080;2022-09-03T05:58:29;7.17;;;2.60;;
69280;SDS011;56392;51.082;17.080;2022-09-03T06:03:33;7.13;;;2.60;;
69280;SDS011;56392;51.082;17.080;2022-09-03T06:08:37;6.53;;;2.30;;
69280;SDS011;56392;51.082;17.080;2022-09-03T06:13:40;6.22;;;2.30;;
69280;SDS011;56392;51.082;17.080;2022-09-03T06:18:44;7.17;;;2.30;;
69280;SDS011;56392;51.082;17.080;2022-09-03T06:23:47;7.55;;;2.30;;
69280;SDS011;56392;51.082;17.080;2022-09-03T06:28:51;8.38;;;2.13;;
69280;SDS011;56392;51.082;17.080;2022-09-03T06:33:57;8.60;;;2.50;;
69280;SDS011;56392;51.082;17.080;2022-09-03T06:39:00;6.90;;;2.00;;
69280;SDS011;56392;51.082;17.080;2022-09-03T06:44:03;7.15;;;2.30;;
69280;SDS011;56392;51.082;17.080;2022-09-03T06:49:12;8.27;;;2.10;;
69280;SDS011;56392;51.082;17.080;2022-09-03T06:54:15;6.33;;;2.13;;
69280;SDS011;56392;51.082;17.080;2022-09-03T06:59:18;7.40;;;2.30;;
69280;SDS011;56392;51.082;17.080;2022-09-03T07:04:24;7.55;;;2.55;;
69280;SDS011;56392;51.082;17.080;2022-09-03T07:09:27;8.10;;;2.40;;
69280;SDS011;56392;51.082;17.080;2022-09-03T07:14:32;7.60;;;2.70;;
69280;SDS011;56392;51.082;17.080;2022-09-03T07:19:36;8.80;;;2.65;;
69280;SDS011;56392;51.082;17.080;2022-09-03T07:24:38;8.30;;;2.80;;
69280;SDS011;56392;51.082;17.080;2022-09-03T07:29:41;8.00;;;3.17;;
69280;SDS011;56392;51.082;17.080;2022-09-03T07:34:45;10.25;;;3.70;;
69280;SDS011;56392;51.082;17.080;2022-09-03T07:39:47;12.02;;;3.53;;
69280;SDS011;56392;51.082;17.080;2022-09-03T07:44:50;9.50;;;3.40;;
69280;SDS011;56392;51.082;17.080;2022-09-03T07:49:54;13.13;;;4.32;;
69280;SDS011;56392;51.082;17.080;2022-09-03T07:54:56;9.43;;;3.40;;
69280;SDS011;56392;51.082;17.080;2022-09-03T07:59:59;11.60;;;3.80;;
69280;SDS011;56392;51.082;17.080;2022-09-03T08:05:03;8.82;;;3.92;;
69280;SDS011;56392;51.082;17.080;2022-09-03T08:10:07;9.20;;;3.90;;
69280;SDS011;56392;51.082;17.080;2022-09-03T08:15:10;9.77;;;4.00;;
69280;SDS011;56392;51.082;17.080;2022-09-03T08:20:14;8.77;;;4.10;;
69280;SDS011;56392;51.082;17.080;2022-09-03T08:25:17;9.40;;;3.92;;
69280;SDS011;56392;51.082;17.080;2022-09-03T08:30:20;8.63;;;3.95;;
69280;SDS011;56392;51.082;17.080;2022-09-03T08:35:26;9.40;;;3.87;;
69280;SDS011;56392;51.082;17.080;2022-09-03T08:40:31;10.32;;;4.25;;
69280;SDS011;56392;51.082;17.080;2022-09-03T08:45:35;7.85;;;4.00;;
69280;SDS011;56392;51.082;17.080;2022-09-03T08:50:40;8.57;;;3.90;;
69280;SDS011;56392;51.082;17.080;2022-09-03T08:55:48;7.82;;;3.92;;
69280;SDS011;56392;51.082;17.080;2022-09-03T09:00:54;9.70;;;3.90;;
69280;SDS011;56392;51.082;17.080;2022-09-03T09:06:06;10.27;;;3.90;;
69280;SDS011;56392;51.082;17.080;2022-09-03T09:11:18;9.25;;;3.53;;
69280;SDS011;56392;51.082;17.080;2022-09-03T09:16:27;7.57;;;3.38;;
69280;SDS011;56392;51.082;17.080;2022-09-03T09:21:39;8.45;;;3.35;;
69280;SDS011;56392;51.082;17.080;2022-09-03T09:26:47;6.90;;;3.30;;
69280;SDS011;56392;51.082;17.080;2022-09-03T09:31:49;10.27;;;3.60;;
69280;SDS011;56392;51.082;17.080;2022-09-03T09:36:55;9.68;;;3.45;;
69280;SDS011;56392;51.082;17.080;2022-09-03T09:41:58;9.27;;;3.60;;
69280;SDS011;56392;51.082;17.080;2022-09-03T09:47:07;10.02;;;3.67;;
69280;SDS011;56392;51.082;17.080;2022-09-03T09:52:15;8.90;;;3.38;;
69280;SDS011;56392;51.082;17.080;2022-09-03T09:57:20;7.73;;;3.10;;
69280;SDS011;56392;51.082;17.080;2022-09-03T10:02:25;8.02;;;3.05;;
69280;SDS011;56392;51.082;17.080;2022-09-03T10:07:30;7.35;;;3.10;;
69280;SDS011;56392;51.082;17.080;2022-09-03T10:12:35;9.93;;;3.00;;
69280;SDS011;56392;51.082;17.080;2022-09-03T10:17:48;10.23;;;2.87;;
69280;SDS011;56392;51.082;17.080;2022-09-03T10:22:58;9.43;;;3.13;;
69280;SDS011;56392;51.082;17.080;2022-09-03T10:28:05;9.60;;;2.92;;
69280;SDS011;56392;51.082;17.080;2022-09-03T10:33:09;8.87;;;2.80;;
69280;SDS011;56392;51.082;17.080;2022-09-03T10:38:23;11.73;;;2.83;;
69280;SDS011;56392;51.082;17.080;2022-09-03T10:43:40;7.97;;;2.72;;
69280;SDS011;56392;51.082;17.080;2022-09-03T10:49:07;10.57;;;3.03;;
69280;SDS011;56392;51.082;17.080;2022-09-03T10:54:24;6.80;;;2.50;;
69280;SDS011;56392;51.082;17.080;2022-09-03T10:59:39;6.97;;;2.50;;
69280;SDS011;56392;51.082;17.080;2022-09-03T11:04:55;6.85;;;2.80;;
69280;SDS011;56392;51.082;17.080;2022-09-03T11:10:08;8.67;;;2.90;;
69280;SDS011;56392;51.082;17.080;2022-09-03T11:15:19;10.07;;;2.58;;
69280;SDS011;56392;51.082;17.080;2022-09-03T11:20:27;9.95;;;3.20;;
69280;SDS011;56392;51.082;17.080;2022-09-03T11:25:34;11.13;;;2.80;;
69280;SDS011;56392;51.082;17.080;2022-09-03T11:30:46;7.45;;;2.75;;
69280;SDS011;56392;51.082;17.080;2022-09-03T11:36:04;9.35;;;2.80;;
69280;SDS011;56392;51.082;17.080;2022-09-03T11:41:12;7.03;;;2.47;;
69280;SDS011;56392;51.082;17.080;2022-09-03T11:46:26;9.75;;;3.00;;
69280;SDS011;56392;51.082;17.080;2022-09-03T11:51:31;9.57;;;2.97;;
69280;SDS011;56392;51.082;17.080;2022-09-03T11:56:39;8.63;;;2.93;;
69280;SDS011;56392;51.082;17.080;2022-09-03T12:01:45;9.20;;;3.10;;
69280;SDS011;56392;51.082;17.080;2022-09-03T12:07:05;8.88;;;3.13;;
69280;SDS011;56392;51.082;17.080;2022-09-03T12:12:36;8.10;;;3.30;;
69280;SDS011;56392;51.082;17.080;2022-09-03T12:17:48;9.57;;;2.97;;
69280;SDS011;56392;51.082;17.080;2022-09-03T12:23:24;9.63;;;3.10;;
69280;SDS011;56392;51.082;17.080;2022-09-03T12:28:29;7.22;;;2.72;;
69280;SDS011;56392;51.082;17.080;2022-09-03T12:33:33;7.43;;;3.00;;
69280;SDS011;56392;51.082;17.080;2022-09-03T12:38:36;8.30;;;2.58;;
69280;SDS011;56392;51.082;17.080;2022-09-03T12:43:40;9.13;;;2.90;;
69280;SDS011;56392;51.082;17.080;2022-09-03T12:48:45;7.67;;;2.90;;
69280;SDS011;56392;51.082;17.080;2022-09-03T12:53:53;10.13;;;3.00;;
69280;SDS011;56392;51.082;17.080;2022-09-03T12:58:58;8.90;;;2.88;;
69280;SDS011;56392;51.082;17.080;2022-09-03T13:04:04;10.35;;;2.80;;
69280;SDS011;56392;51.082;17.080;2022-09-03T13:09:11;8.47;;;2.90;;
69280;SDS011;56392;51.082;17.080;2022-09-03T13:14:17;8.48;;;2.45;;
69280;SDS011;56392;51.082;17.080;2022-09-03T13:19:21;8.35;;;3.13;;
69280;SDS011;56392;51.082;17.080;2022-09-03T13:30:02;8.20;;;2.80;;
69280;SDS011;56392;51.082;17.080;2022-09-03T13:35:09;7.43;;;2.90;;
69280;SDS011;56392;51.082;17.080;2022-09-03T13:40:21;8.40;;;3.17;;
69280;SDS011;56392;51.082;17.080;2022-09-03T13:45:30;9.13;;;3.10;;
69280;SDS011;56392;51.082;17.080;2022-09-03T13:50:39;9.55;;;3.47;;
69280;SDS011;56392;51.082;17.080;2022-09-03T13:55:45;10.13;;;3.03;;
69280;SDS011;56392;51.082;17.080;2022-09-03T14:00:51;9.13;;;2.87;;
69280;SDS011;56392;51.082;17.080;2022-09-03T14:06:04;8.10;;;3.20;;
69280;SDS011;56392;51.082;17.080;2022-09-03T14:11:18;10.52;;;3.30;;
69280;SDS011;56392;51.082;17.080;2022-09-03T14:16:30;9.00;;;3.20;;
69280;SDS011;56392;51.082;17.080;2022-09-03T14:21:41;7.38;;;2.80;;
69280;SDS011;56392;51.082;17.080;2022-09-03T14:26:49;11.57;;;3.38;;
69280;SDS011;56392;51.082;17.080;2022-09-03T14:31:58;8.80;;;3.23;;
69280;SDS011;56392;51.082;17.080;2022-09-03T14:37:27;10.63;;;3.30;;
69280;SDS011;56392;51.082;17.080;2022-09-03T14:42:49;11.38;;;3.38;;
69280;SDS011;56392;51.082;17.080;2022-09-03T14:48:06;7.93;;;3.20;;
69280;SDS011;56392;51.082;17.080;2022-09-03T14:53:29;10.83;;;3.80;;
69280;SDS011;56392;51.082;17.080;2022-09-03T14:58:49;9.57;;;3.60;;
69280;SDS011;56392;51.082;17.080;2022-09-03T15:04:17;10.27;;;3.10;;
69280;SDS011;56392;51.082;17.080;2022-09-03T15:09:36;8.57;;;3.17;;
69280;SDS011;56392;51.082;17.080;2022-09-03T15:14:45;7.13;;;3.10;;
69280;SDS011;56392;51.082;17.080;2022-09-03T15:19:58;9.80;;;3.55;;
69280;SDS011;56392;51.082;17.080;2022-09-03T15:25:09;8.53;;;3.10;;
69280;SDS011;56392;51.082;17.080;2022-09-03T15:30:22;10.27;;;3.57;;
69280;SDS011;56392;51.082;17.080;2022-09-03T15:35:41;7.05;;;3.33;;
69280;SDS011;56392;51.082;17.080;2022-09-03T15:40:56;7.53;;;3.20;;
69280;SDS011;56392;51.082;17.080;2022-09-03T15:46:04;8.93;;;3.30;;
69280;SDS011;56392;51.082;17.080;2022-09-03T15:51:16;8.68;;;3.33;;
69280;SDS011;56392;51.082;17.080;2022-09-03T15:56:25;8.82;;;3.53;;
69280;SDS011;56392;51.082;17.080;2022-09-03T16:01:34;9.63;;;3.50;;
69280;SDS011;56392;51.082;17.080;2022-09-03T16:06:48;8.52;;;3.17;;
69280;SDS011;56392;51.082;17.080;2022-09-03T16:11:58;9.10;;;3.60;;
69280;SDS011;56392;51.082;17.080;2022-09-03T16:17:12;8.73;;;3.60;;
69280;SDS011;56392;51.082;17.080;2022-09-03T16:22:26;8.97;;;3.60;;
69280;SDS011;56392;51.082;17.080;2022-09-03T16:27:32;8.18;;;3.25;;
69280;SDS011;56392;51.082;17.080;2022-09-03T16:32:41;8.20;;;3.38;;
69280;SDS011;56392;51.082;17.080;2022-09-03T16:37:55;8.07;;;3.23;;
69280;SDS011;56392;51.082;17.080;2022-09-03T16:43:07;9.80;;;3.72;;
69280;SDS011;56392;51.082;17.080;2022-09-03T16:48:22;9.55;;;3.70;;
69280;SDS011;56392;51.082;17.080;2022-09-03T16:53:36;8.60;;;3.70;;
69280;SDS011;56392;51.082;17.080;2022-09-03T16:58:47;10.52;;;3.88;;
69280;SDS011;56392;51.082;17.080;2022-09-03T17:04:05;8.57;;;3.88;;
69280;SDS011;56392;51.082;17.080;2022-09-03T17:09:38;8.60;;;3.60;;
69280;SDS011;56392;51.082;17.080;2022-09-03T17:14:59;10.13;;;4.00;;
69280;SDS011;56392;51.082;17.080;2022-09-03T17:20:14;8.18;;;3.50;;
69280;SDS011;56392;51.082;17.080;2022-09-03T17:25:26;10.02;;;3.67;;
69280;SDS011;56392;51.082;17.080;2022-09-03T17:30:36;10.20;;;4.03;;
69280;SDS011;56392;51.082;17.080;2022-09-03T17:35:45;10.30;;;3.90;;
69280;SDS011;56392;51.082;17.080;2022-09-03T17:40:58;10.50;;;3.50;;
69280;SDS011;56392;51.082;17.080;2022-09-03T17:46:13;10.70;;;3.67;;
69280;SDS011;56392;51.082;17.080;2022-09-03T17:51:29;11.55;;;4.07;;
69280;SDS011;56392;51.082;17.080;2022-09-03T17:56:41;9.40;;;3.70;;
69280;SDS011;56392;51.082;17.080;2022-09-03T18:01:50;9.33;;;3.77;;
69280;SDS011;56392;51.082;17.080;2022-09-03T18:07:00;10.53;;;3.73;;
69280;SDS011;56392;51.082;17.080;2022-09-03T18:12:17;11.95;;;3.75;;
69280;SDS011;56392;51.082;17.080;2022-09-03T18:17:31;9.77;;;3.85;;
69280;SDS011;56392;51.082;17.080;2022-09-03T18:22:39;9.73;;;3.90;;
69280;SDS011;56392;51.082;17.080;2022-09-03T18:28:08;7.65;;;3.83;;
69280;SDS011;56392;51.082;17.080;2022-09-03T18:33:32;9.57;;;4.10;;
69280;SDS011;56392;51.082;17.080;2022-09-03T18:38:53;10.70;;;3.90;;
69280;SDS011;56392;51.082;17.080;2022-09-03T18:44:24;11.60;;;4.10;;
69280;SDS011;56392;51.082;17.080;2022-09-03T18:49:53;8.90;;;4.30;;
69280;SDS011;56392;51.082;17.080;2022-09-03T18:55:22;10.77;;;4.00;;
69280;SDS011;56392;51.082;17.080;2022-09-03T19:00:58;8.63;;;4.30;;
69280;SDS011;56392;51.082;17.080;2022-09-03T19:06:25;10.23;;;4.20;;
69280;SDS011;56392;51.082;17.080;2022-09-03T19:11:56;11.25;;;4.22;;
69280;SDS011;56392;51.082;17.080;2022-09-03T19:17:26;10.10;;;4.03;;
69280;SDS011;56392;51.082;17.080;2022-09-03T19:22:52;12.90;;;4.72;;
69280;SDS011;56392;51.082;17.080;2022-09-03T19:28:13;9.68;;;4.32;;
69280;SDS011;56392;51.082;17.080;2022-09-03T19:33:38;9.83;;;4.40;;
69280;SDS011;56392;51.082;17.080;2022-09-03T19:39:09;10.13;;;4.40;;
69280;SDS011;56392;51.082;17.080;2022-09-03T19:44:44;14.98;;;4.43;;
69280;SDS011;56392;51.082;17.080;2022-09-03T19:50:19;13.17;;;5.10;;
69280;SDS011;56392;51.082;17.080;2022-09-03T19:55:43;12.10;;;4.77;;
69280;SDS011;56392;51.082;17.080;2022-09-03T20:01:05;10.98;;;4.95;;
69280;SDS011;56392;51.082;17.080;2022-09-03T20:06:28;12.20;;;4.80;;
69280;SDS011;56392;51.082;17.080;2022-09-03T20:11:53;11.03;;;4.57;;
69280;SDS011;56392;51.082;17.080;2022-09-03T20:17:03;12.43;;;5.45;;
69280;SDS011;56392;51.082;17.080;2022-09-03T20:22:14;13.07;;;5.85;;
69280;SDS011;56392;51.082;17.080;2022-09-03T20:27:26;12.50;;;5.30;;
69280;SDS011;56392;51.082;17.080;2022-09-03T20:32:42;11.48;;;5.35;;
69280;SDS011;56392;51.082;17.080;2022-09-03T20:38:13;12.93;;;5.47;;
69280;SDS011;56392;51.082;17.080;2022-09-03T20:43:44;13.87;;;5.80;;
69280;SDS011;56392;51.082;17.080;2022-09-03T20:49:01;12.10;;;6.20;;
69280;SDS011;56392;51.082;17.080;2022-09-03T20:54:12;14.63;;;5.90;;
69280;SDS011;56392;51.082;17.080;2022-09-03T20:59:25;14.35;;;6.70;;
69280;SDS011;56392;51.082;17.080;2022-09-03T21:04:41;19.57;;;6.50;;
69280;SDS011;56392;51.082;17.080;2022-09-03T21:09:54;16.85;;;7.18;;
69280;SDS011;56392;51.082;17.080;2022-09-03T21:15:03;14.95;;;7.18;;
69280;SDS011;56392;51.082;17.080;2022-09-03T21:20:14;14.60;;;7.10;;
69280;SDS011;56392;51.082;17.080;2022-09-03T21:25:25;16.35;;;7.53;;
69280;SDS011;56392;51.082;17.080;2022-09-03T21:30:31;19.88;;;9.60;;
69280;SDS011;56392;51.082;17.080;2022-09-03T21:35:39;24.83;;;11.73;;
69280;SDS011;56392;51.082;17.080;2022-09-03T21:40:48;28.13;;;12.97;;
69280;SDS011;56392;51.082;17.080;2022-09-03T21:45:57;25.08;;;12.23;;
69280;SDS011;56392;51.082;17.080;2022-09-03T21:51:05;21.50;;;11.43;;
69280;SDS011;56392;51.082;17.080;2022-09-03T21:56:18;20.77;;;10.03;;
69280;SDS011;56392;51.082;17.080;2022-09-03T22:01:32;19.90;;;9.05;;
69280;SDS011;56392;51.082;17.080;2022-09-03T22:06:44;17.38;;;7.90;;
69280;SDS011;56392;51.082;17.080;2022-09-03T22:11:56;18.20;;;8.80;;
69280;SDS011;56392;51.082;17.080;2022-09-03T22:17:05;16.15;;;7.95;;
69280;SDS011;56392;51.082;17.080;2022-09-03T22:22:13;17.15;;;7.70;;
69280;SDS011;56392;51.082;17.080;2022-09-03T22:27:25;15.10;;;7.13;;
69280;SDS011;56392;51.082;17.080;2022-09-03T22:32:45;14.67;;;5.83;;
69280;SDS011;56392;51.082;17.080;2022-09-03T22:38:00;12.35;;;6.13;;
69280;SDS011;56392;51.082;17.080;2022-09-03T22:43:17;13.38;;;5.93;;
69280;SDS011;56392;51.082;17.080;2022-09-03T22:54:10;15.82;;;6.63;;
69280;SDS011;56392;51.082;17.080;2022-09-03T22:59:26;13.65;;;6.90;;
69280;SDS011;56392;51.082;17.080;2022-09-03T23:04:35;11.80;;;6.37;;
69280;SDS011;56392;51.082;17.080;2022-09-03T23:09:41;13.95;;;6.05;;
69280;SDS011;56392;51.082;17.080;2022-09-03T23:14:49;11.55;;;6.47;;
69280;SDS011;56392;51.082;17.080;2022-09-03T23:19:58;16.83;;;6.63;;
69280;SDS011;56392;51.082;17.080;2022-09-03T23:25:04;13.97;;;6.00;;
69280;SDS011;56392;51.082;17.080;2022-09-03T23:30:12;13.73;;;5.97;;
69280;SDS011;56392;51.082;17.080;2022-09-03T23:35:14;11.10;;;5.78;;
69280;SDS011;56392;51.082;17.080;2022-09-03T23:40:30;11.83;;;5.90;;
69280;SDS011;56392;51.082;17.080;2022-09-03T23:45:44;12.63;;;5.88;;
69280;SDS011;56392;51.082;17.080;2022-09-03T23:50:56;13.70;;;5.65;;
69280;SDS011;56392;51.082;17.080;2022-09-03T23:56:14;12.40;;;6.07;;
